Time;durP1;ratioP1;P1;durP2;ratioP2;P2;SDS_P1;SDS_P2;PMS_P1;PMS_P2;Temp;Humidity;BMP_temperature;BMP_pressure;BME280_temperature;BME280_humidity;BME280_pressure;Samples;Min_cycle;Max_cycle;Signal;HPM_P1;HPM_P2
2022/06/08 00:02:16;;;;;;;0.70;0.70;;;;;;;;;;5056096;28;20871;-76
2022/06/08 00:04:44;;;;;;;0.60;0.57;;;;;;;;;;5055338;28;20849;-76
2022/06/08 00:07:11;;;;;;;0.60;0.60;;;;;;;;;;5071995;28;20455;-76
2022/06/08 00:09:38;;;;;;;0.60;0.60;;;;;;;;;;5070651;28;20442;-76
2022/06/08 00:12:05;;;;;;;0.60;0.60;;;;;;;;;;5055305;28;20552;-76
2022/06/08 00:14:32;;;;;;;0.60;0.60;;;;;;;;;;5071661;28;20439;-76
2022/06/08 00:17:00;;;;;;;0.60;0.60;;;;;;;;;;5054426;28;20434;-76
2022/06/08 00:19:29;;;;;;;0.60;0.60;;;;;;;;;;5035225;28;20808;-76
2022/06/08 00:21:56;;;;;;;0.60;0.60;;;;;;;;;;5034505;28;20464;-76
2022/06/08 00:24:24;;;;;;;0.67;0.60;;;;;;;;;;5051509;28;20517;-75
2022/06/08 00:26:50;;;;;;;0.63;0.60;;;;;;;;;;5050653;28;20436;-76
2022/06/08 00:29:18;;;;;;;0.70;0.70;;;;;;;;;;5033941;28;20505;-76
2022/06/08 00:31:46;;;;;;;0.60;0.60;;;;;;;;;;5034353;28;20474;-77
2022/06/08 00:34:15;;;;;;;0.80;0.80;;;;;;;;;;5034738;28;20439;-76
2022/06/08 00:36:43;;;;;;;0.70;0.70;;;;;;;;;;5051268;28;20561;-76
2022/06/08 00:39:11;;;;;;;0.60;0.60;;;;;;;;;;5052185;28;20450;-76
2022/06/08 00:41:41;;;;;;;0.70;0.60;;;;;;;;;;5038192;28;20979;-77
2022/06/08 00:44:12;;;;;;;0.70;0.70;;;;;;;;;;5054510;28;20492;-76
2022/06/08 00:46:40;;;;;;;0.60;0.60;;;;;;;;;;5054449;28;20489;-76
2022/06/08 00:49:12;;;;;;;0.60;0.60;;;;;;;;;;5066414;28;20952;-77
2022/06/08 00:51:40;;;;;;;0.70;0.70;;;;;;;;;;5056781;28;20485;-77
2022/06/08 00:54:15;;;;;;;0.70;0.60;;;;;;;;;;5042008;28;20447;-77
2022/06/08 00:56:46;;;;;;;0.60;0.60;;;;;;;;;;5054102;28;20493;-77
2022/06/08 00:59:15;;;;;;;0.70;0.70;;;;;;;;;;5053738;28;20453;-77
2022/06/08 01:01:44;;;;;;;0.60;0.60;;;;;;;;;;5053823;28;20454;-76
2022/06/08 01:04:13;;;;;;;0.70;0.60;;;;;;;;;;5053822;28;20448;-77
2022/06/08 01:06:51;;;;;;;0.70;0.70;;;;;;;;;;5054028;28;20561;-77
2022/06/08 01:09:25;;;;;;;0.70;0.67;;;;;;;;;;5035896;28;20447;-76
2022/06/08 01:11:58;;;;;;;0.60;0.60;;;;;;;;;;5047744;28;20560;-76
2022/06/08 01:14:30;;;;;;;0.70;0.67;;;;;;;;;;5054162;28;20458;-77
2022/06/08 01:17:01;;;;;;;0.60;0.60;;;;;;;;;;5054161;28;20451;-77
2022/06/08 01:19:31;;;;;;;0.70;0.63;;;;;;;;;;5067241;28;20553;-77
2022/06/08 01:22:03;;;;;;;0.70;0.70;;;;;;;;;;5057661;28;20517;-77
2022/06/08 01:24:42;;;;;;;0.60;0.60;;;;;;;;;;5067542;28;20501;-76
2022/06/08 01:27:47;;;;;;;0.60;0.60;;;;;;;;;;5053576;28;20445;-77
2022/06/08 01:30:21;;;;;;;0.70;0.70;;;;;;;;;;5073184;28;20867;-76
2022/06/08 01:33:12;;;;;;;0.60;0.60;;;;;;;;;;5072319;28;20462;-76
2022/06/08 01:35:44;;;;;;;0.60;0.60;;;;;;;;;;5053716;28;20854;-76
2022/06/08 01:38:22;;;;;;;0.60;0.60;;;;;;;;;;5057161;28;20496;-76
2022/06/08 01:40:56;;;;;;;0.60;0.60;;;;;;;;;;5040400;28;20541;-76
2022/06/08 01:43:27;;;;;;;0.70;0.60;;;;;;;;;;5053432;28;20833;-76
2022/06/08 01:46:05;;;;;;;0.60;0.60;;;;;;;;;;5053369;28;20451;-75
2022/06/08 01:48:40;;;;;;;0.70;0.67;;;;;;;;;;5052576;28;20485;-76
2022/06/08 01:51:21;;;;;;;0.63;0.60;;;;;;;;;;5053415;28;20438;-75
2022/06/08 01:53:58;;;;;;;0.70;0.60;;;;;;;;;;5053759;28;20442;-76
2022/06/08 01:56:29;;;;;;;0.70;0.60;;;;;;;;;;5036095;28;20567;-77
2022/06/08 01:59:09;;;;;;;0.60;0.60;;;;;;;;;;5069367;28;20447;-76
2022/06/08 02:01:46;;;;;;;0.70;0.60;;;;;;;;;;5073423;28;20861;-76
2022/06/08 02:04:19;;;;;;;0.60;0.60;;;;;;;;;;5055958;28;20860;-76
2022/06/08 02:06:50;;;;;;;0.63;0.60;;;;;;;;;;5072296;28;20475;-76
2022/06/08 02:09:23;;;;;;;0.70;0.70;;;;;;;;;;5043476;28;20440;-76
2022/06/08 02:11:52;;;;;;;0.60;0.60;;;;;;;;;;5052879;28;20825;-76
2022/06/08 02:14:23;;;;;;;0.70;0.70;;;;;;;;;;5052123;28;21017;-76
2022/06/08 02:16:51;;;;;;;0.73;0.73;;;;;;;;;;5052905;28;20447;-76
2022/06/08 02:19:21;;;;;;;0.60;0.50;;;;;;;;;;5052661;28;20476;-76
2022/06/08 02:21:50;;;;;;;0.67;0.63;;;;;;;;;;5052916;28;20464;-76
2022/06/08 02:24:21;;;;;;;0.60;0.60;;;;;;;;;;5052355;28;20955;-76
2022/06/08 02:26:52;;;;;;;0.70;0.67;;;;;;;;;;5052689;28;21005;-76
2022/06/08 02:29:23;;;;;;;0.80;0.80;;;;;;;;;;5033247;28;20454;-76
2022/06/08 02:31:51;;;;;;;0.70;0.70;;;;;;;;;;5038044;28;20463;-76
2022/06/08 02:34:31;;;;;;;0.60;0.50;;;;;;;;;;5035007;28;20490;-77
2022/06/08 02:37:06;;;;;;;0.70;0.70;;;;;;;;;;5041498;28;20525;-76
2022/06/08 02:39:36;;;;;;;0.70;0.70;;;;;;;;;;5052571;28;20863;-76
2022/06/08 02:42:07;;;;;;;0.60;0.60;;;;;;;;;;5051985;28;20467;-76
2022/06/08 02:44:36;;;;;;;0.67;0.67;;;;;;;;;;5052916;28;20432;-77
2022/06/08 02:47:05;;;;;;;0.60;0.60;;;;;;;;;;5051616;28;20444;-76
2022/06/08 02:49:36;;;;;;;0.60;0.60;;;;;;;;;;5051620;28;20461;-76
2022/06/08 02:52:17;;;;;;;0.60;0.60;;;;;;;;;;5051508;28;20476;-76
2022/06/08 02:54:44;;;;;;;0.60;0.60;;;;;;;;;;5051875;28;20435;-76
2022/06/08 02:57:16;;;;;;;0.60;0.60;;;;;;;;;;5052117;28;20441;-76
2022/06/08 02:59:49;;;;;;;0.60;0.60;;;;;;;;;;5056436;28;20431;-76
2022/06/08 03:02:22;;;;;;;0.70;0.70;;;;;;;;;;5052112;28;20516;-76
2022/06/08 03:04:55;;;;;;;0.70;0.70;;;;;;;;;;5051943;28;20848;-76
2022/06/08 03:07:25;;;;;;;0.60;0.60;;;;;;;;;;5050535;28;20479;-76
2022/06/08 03:09:53;;;;;;;0.60;0.60;;;;;;;;;;5032122;28;20457;-76
2022/06/08 03:12:25;;;;;;;0.70;0.70;;;;;;;;;;5043259;28;20467;-76
2022/06/08 03:14:52;;;;;;;0.70;0.70;;;;;;;;;;5031668;28;20458;-77
2022/06/08 03:17:27;;;;;;;0.70;0.70;;;;;;;;;;5017869;28;20460;-77
2022/06/08 03:19:55;;;;;;;0.60;0.60;;;;;;;;;;5051849;28;20461;-77
2022/06/08 03:22:22;;;;;;;0.60;0.60;;;;;;;;;;5040383;28;20822;-76
2022/06/08 03:24:49;;;;;;;0.60;0.60;;;;;;;;;;5037844;28;21022;-76
2022/06/08 03:27:17;;;;;;;0.70;0.60;;;;;;;;;;5039423;28;20432;-77
2022/06/08 03:29:51;;;;;;;0.63;0.60;;;;;;;;;;5055185;28;20438;-77
2022/06/08 03:32:25;;;;;;;0.60;0.60;;;;;;;;;;5052637;28;20487;-77
2022/06/08 03:34:52;;;;;;;0.70;0.70;;;;;;;;;;5050730;28;20458;-77
2022/06/08 03:37:19;;;;;;;0.70;0.70;;;;;;;;;;5044073;28;20464;-76
2022/06/08 03:39:51;;;;;;;0.70;0.70;;;;;;;;;;5064682;28;20481;-76
2022/06/08 03:42:18;;;;;;;0.60;0.60;;;;;;;;;;5051855;28;20455;-76
2022/06/08 03:44:47;;;;;;;0.70;0.70;;;;;;;;;;5051487;28;20482;-76
2022/06/08 03:47:17;;;;;;;0.60;0.60;;;;;;;;;;5053360;28;21005;-76
2022/06/08 03:49:44;;;;;;;0.70;0.67;;;;;;;;;;5037420;28;20447;-76
2022/06/08 03:52:13;;;;;;;0.60;0.60;;;;;;;;;;5051305;28;20498;-76
2022/06/08 03:54:46;;;;;;;0.70;0.70;;;;;;;;;;5034032;28;20433;-75
2022/06/08 03:57:14;;;;;;;0.70;0.70;;;;;;;;;;5034186;28;20479;-76
2022/06/08 03:59:43;;;;;;;0.67;0.67;;;;;;;;;;5051147;28;20445;-76
2022/06/08 04:02:11;;;;;;;0.70;0.70;;;;;;;;;;5053154;28;20482;-76
2022/06/08 04:04:42;;;;;;;0.70;0.60;;;;;;;;;;5050886;28;20452;-76
2022/06/08 04:07:10;;;;;;;0.60;0.60;;;;;;;;;;5050021;28;20511;-76
2022/06/08 04:09:41;;;;;;;0.67;0.60;;;;;;;;;;5050637;28;20494;-76
2022/06/08 04:12:08;;;;;;;0.60;0.60;;;;;;;;;;5052345;28;20459;-75
2022/06/08 04:14:35;;;;;;;0.60;0.60;;;;;;;;;;5051041;28;20514;-76
2022/06/08 04:17:03;;;;;;;0.70;0.70;;;;;;;;;;5050749;28;20456;-76
2022/06/08 04:19:30;;;;;;;0.60;0.60;;;;;;;;;;5051164;28;21026;-76
2022/06/08 04:21:59;;;;;;;0.60;0.60;;;;;;;;;;5051437;28;20462;-76
2022/06/08 04:24:26;;;;;;;0.70;0.70;;;;;;;;;;5033894;28;20447;-75
2022/06/08 04:26:56;;;;;;;0.60;0.60;;;;;;;;;;5051062;28;20430;-76
2022/06/08 04:29:31;;;;;;;0.70;0.70;;;;;;;;;;5044574;28;20454;-76
2022/06/08 04:32:02;;;;;;;0.60;0.60;;;;;;;;;;5042547;28;20854;-75
2022/06/08 04:34:29;;;;;;;0.60;0.60;;;;;;;;;;5054700;28;20794;-75
2022/06/08 04:36:59;;;;;;;0.60;0.60;;;;;;;;;;5053798;28;20462;-76
2022/06/08 04:39:36;;;;;;;0.60;0.60;;;;;;;;;;5034481;28;20755;-75
2022/06/08 04:42:04;;;;;;;0.60;0.60;;;;;;;;;;5046179;28;20436;-76
2022/06/08 04:44:36;;;;;;;0.60;0.60;;;;;;;;;;5054326;28;20987;-75
2022/06/08 04:47:08;;;;;;;0.60;0.60;;;;;;;;;;5054096;28;20436;-75
2022/06/08 04:49:36;;;;;;;0.70;0.63;;;;;;;;;;5074188;28;20447;-76
2022/06/08 04:52:06;;;;;;;0.60;0.60;;;;;;;;;;5074075;28;20476;-75
2022/06/08 04:54:34;;;;;;;0.70;0.70;;;;;;;;;;5066698;28;20438;-75
2022/06/08 04:57:00;;;;;;;0.70;0.70;;;;;;;;;;5053545;28;20812;-76
2022/06/08 04:59:28;;;;;;;0.60;0.60;;;;;;;;;;5054934;28;20442;-76
2022/06/08 05:02:10;;;;;;;0.60;0.60;;;;;;;;;;5053550;28;20472;-75
2022/06/08 05:04:38;;;;;;;0.70;0.60;;;;;;;;;;5053961;28;20432;-76
2022/06/08 05:07:07;;;;;;;0.67;0.60;;;;;;;;;;5053453;28;20549;-75
2022/06/08 05:09:36;;;;;;;0.67;0.67;;;;;;;;;;5035058;28;20466;-75
2022/06/08 05:12:04;;;;;;;0.63;0.60;;;;;;;;;;5048180;28;20455;-75
2022/06/08 05:14:33;;;;;;;0.60;0.60;;;;;;;;;;5053542;28;20890;-75
2022/06/08 05:17:06;;;;;;;0.60;0.60;;;;;;;;;;5063914;28;20834;-75
2022/06/08 05:19:33;;;;;;;0.60;0.60;;;;;;;;;;5058375;28;20452;-75
2022/06/08 05:22:01;;;;;;;0.70;0.70;;;;;;;;;;5053692;28;20466;-75
2022/06/08 05:24:29;;;;;;;0.70;0.70;;;;;;;;;;5053710;28;20855;-74
2022/06/08 05:26:56;;;;;;;0.63;0.60;;;;;;;;;;5053088;28;20501;-76
2022/06/08 05:29:24;;;;;;;0.60;0.60;;;;;;;;;;5052725;28;20436;-76
2022/06/08 05:31:56;;;;;;;0.70;0.63;;;;;;;;;;5037821;28;20447;-76
2022/06/08 05:34:24;;;;;;;0.70;0.60;;;;;;;;;;5053321;28;20468;-75
2022/06/08 05:36:54;;;;;;;0.60;0.60;;;;;;;;;;5061846;28;20985;-75
2022/06/08 05:39:25;;;;;;;0.60;0.60;;;;;;;;;;5073196;28;20446;-75
2022/06/08 05:41:54;;;;;;;0.70;0.70;;;;;;;;;;5060222;28;20443;-75
2022/06/08 05:44:22;;;;;;;0.67;0.60;;;;;;;;;;5053141;28;20434;-75
2022/06/08 05:46:53;;;;;;;0.70;0.60;;;;;;;;;;5051631;28;20459;-75
2022/06/08 05:49:20;;;;;;;0.70;0.63;;;;;;;;;;5056572;28;20442;-75
2022/06/08 05:51:51;;;;;;;0.63;0.60;;;;;;;;;;5072834;28;20550;-75
2022/06/08 05:54:23;;;;;;;0.70;0.60;;;;;;;;;;5051240;28;20458;-75
2022/06/08 05:56:51;;;;;;;0.70;0.60;;;;;;;;;;5052541;28;20909;-77
2022/06/08 05:59:23;;;;;;;0.70;0.60;;;;;;;;;;5049702;28;20444;-76
2022/06/08 06:01:52;;;;;;;0.70;0.60;;;;;;;;;;5034009;28;20509;-75
2022/06/08 06:04:19;;;;;;;0.70;0.60;;;;;;;;;;5033119;28;20485;-75
2022/06/08 06:06:47;;;;;;;0.70;0.60;;;;;;;;;;5032685;28;20558;-76
2022/06/08 06:09:17;;;;;;;0.70;0.60;;;;;;;;;;5051927;28;20442;-76
2022/06/08 06:11:45;;;;;;;0.77;0.70;;;;;;;;;;5060317;28;20545;-76
2022/06/08 06:14:14;;;;;;;0.70;0.60;;;;;;;;;;5052334;28;20499;-76
2022/06/08 06:16:46;;;;;;;0.70;0.70;;;;;;;;;;5051627;28;20441;-76
2022/06/08 06:19:13;;;;;;;0.70;0.60;;;;;;;;;;5052076;28;20449;-75
2022/06/08 06:21:59;;;;;;;0.70;0.60;;;;;;;;;;5053531;28;20463;-75
2022/06/08 06:24:48;;;;;;;0.70;0.60;;;;;;;;;;5058337;28;20459;-76
2022/06/08 06:27:38;;;;;;;0.70;0.70;;;;;;;;;;5049547;28;20442;-76
2022/06/08 06:30:24;;;;;;;0.70;0.63;;;;;;;;;;5053745;28;20405;-75
2022/06/08 06:33:18;;;;;;;0.70;0.70;;;;;;;;;;5053341;28;20505;-75
2022/06/08 06:35:49;;;;;;;0.70;0.60;;;;;;;;;;5052171;28;20463;-75
2022/06/08 06:38:16;;;;;;;0.70;0.63;;;;;;;;;;5051946;28;20444;-75
2022/06/08 06:40:43;;;;;;;0.70;0.70;;;;;;;;;;5051109;28;20542;-75
2022/06/08 06:43:14;;;;;;;0.70;0.70;;;;;;;;;;5036388;28;20451;-75
2022/06/08 06:45:43;;;;;;;0.70;0.60;;;;;;;;;;5068606;28;20407;-75
2022/06/08 06:48:26;;;;;;;0.70;0.70;;;;;;;;;;5050985;28;20447;-76
2022/06/08 06:50:57;;;;;;;0.70;0.67;;;;;;;;;;5051554;28;20466;-74
2022/06/08 06:53:25;;;;;;;0.70;0.70;;;;;;;;;;5052096;28;20550;-75
2022/06/08 06:55:55;;;;;;;0.70;0.60;;;;;;;;;;5035385;28;20489;-76
2022/06/08 06:58:48;;;;;;;0.70;0.70;;;;;;;;;;5049953;28;20491;-75
2022/06/08 07:01:17;;;;;;;0.70;0.70;;;;;;;;;;5051553;28;20464;-75
2022/06/08 07:03:47;;;;;;;0.70;0.70;;;;;;;;;;5052038;28;21055;-76
2022/06/08 07:06:15;;;;;;;0.70;0.60;;;;;;;;;;5035343;28;20463;-75
2022/06/08 07:08:44;;;;;;;0.70;0.60;;;;;;;;;;5052000;28;20436;-75
2022/06/08 07:14:00;;;;;;;0.70;0.60;;;;;;;;;;5050793;28;20472;-75
2022/06/08 07:16:27;;;;;;;0.70;0.70;;;;;;;;;;5051508;28;20419;-75
2022/06/08 07:18:56;;;;;;;0.70;0.60;;;;;;;;;;5035888;28;20979;-75
2022/06/08 07:21:24;;;;;;;0.70;0.60;;;;;;;;;;5051824;28;20486;-75
2022/06/08 07:23:51;;;;;;;0.70;0.70;;;;;;;;;;5051745;28;20424;-74
2022/06/08 07:26:17;;;;;;;0.70;0.70;;;;;;;;;;5051818;28;20939;-75
2022/06/08 07:28:44;;;;;;;0.70;0.70;;;;;;;;;;5051855;28;20518;-75
2022/06/08 07:31:12;;;;;;;0.70;0.60;;;;;;;;;;5050685;28;20466;-75
2022/06/08 07:33:39;;;;;;;0.70;0.63;;;;;;;;;;5051703;28;20513;-75
2022/06/08 07:36:10;;;;;;;0.80;0.80;;;;;;;;;;5048202;28;20522;-76
2022/06/08 07:38:36;;;;;;;0.70;0.70;;;;;;;;;;5039995;28;20468;-75
2022/06/08 07:41:03;;;;;;;0.70;0.70;;;;;;;;;;5037759;28;20519;-76
2022/06/08 07:43:35;;;;;;;0.70;0.60;;;;;;;;;;5066689;28;20417;-75
2022/06/08 07:46:01;;;;;;;0.70;0.60;;;;;;;;;;5063364;28;20516;-76
2022/06/08 07:51:16;;;;;;;0.70;0.70;;;;;;;;;;5050869;28;20520;-75
2022/06/08 07:53:45;;;;;;;0.70;0.70;;;;;;;;;;5049349;28;20475;-75
2022/06/08 07:56:12;;;;;;;0.70;0.60;;;;;;;;;;5051156;28;20416;-77
2022/06/08 07:58:39;;;;;;;0.70;0.70;;;;;;;;;;5050355;28;20443;-76
2022/06/08 08:01:06;;;;;;;0.70;0.70;;;;;;;;;;5051462;28;20830;-75
2022/06/08 08:03:33;;;;;;;0.70;0.70;;;;;;;;;;5070775;28;20468;-75
2022/06/08 08:06:01;;;;;;;0.70;0.70;;;;;;;;;;5055028;28;20983;-76
2022/06/08 08:08:30;;;;;;;0.70;0.70;;;;;;;;;;5055973;28;20461;-76
2022/06/08 08:10:57;;;;;;;0.70;0.70;;;;;;;;;;5043431;28;20436;-76
2022/06/08 08:13:25;;;;;;;0.70;0.70;;;;;;;;;;5073831;28;20460;-75
2022/06/08 08:15:53;;;;;;;0.70;0.60;;;;;;;;;;5056080;28;20474;-76
2022/06/08 08:18:20;;;;;;;0.70;0.60;;;;;;;;;;5074281;28;20442;-76
2022/06/08 08:20:47;;;;;;;0.70;0.70;;;;;;;;;;5072876;28;21037;-78
2022/06/08 08:23:17;;;;;;;0.70;0.60;;;;;;;;;;5057984;28;20422;-76
2022/06/08 08:25:46;;;;;;;0.80;0.80;;;;;;;;;;5056830;28;20462;-76
2022/06/08 08:28:13;;;;;;;0.70;0.67;;;;;;;;;;5063244;28;20409;-76
2022/06/08 08:30:39;;;;;;;0.70;0.60;;;;;;;;;;5056392;28;20469;-78
2022/06/08 08:33:06;;;;;;;0.70;0.60;;;;;;;;;;5082774;28;20431;-76
2022/06/08 08:35:33;;;;;;;0.70;0.60;;;;;;;;;;5053466;28;20775;-75
2022/06/08 08:38:00;;;;;;;0.70;0.70;;;;;;;;;;5063605;28;20497;-77
2022/06/08 08:40:44;;;;;;;0.80;0.70;;;;;;;;;;5063620;28;20891;-78
2022/06/08 08:43:14;;;;;;;0.70;0.60;;;;;;;;;;5070168;28;20509;-78
2022/06/08 08:45:44;;;;;;;0.70;0.60;;;;;;;;;;5068141;28;20438;-78
2022/06/08 08:48:15;;;;;;;0.70;0.60;;;;;;;;;;5064063;28;20420;-75
2022/06/08 08:50:46;;;;;;;0.70;0.60;;;;;;;;;;5060666;28;20390;-79
2022/06/08 08:53:16;;;;;;;0.70;0.60;;;;;;;;;;5061699;28;20407;-77
2022/06/08 08:55:47;;;;;;;0.70;0.60;;;;;;;;;;5069022;28;20472;-78
2022/06/08 08:58:16;;;;;;;0.73;0.70;;;;;;;;;;5060076;28;20924;-77
2022/06/08 09:00:49;;;;;;;0.70;0.60;;;;;;;;;;5057038;28;20466;-76
2022/06/08 09:03:21;;;;;;;0.70;0.60;;;;;;;;;;5059685;28;20434;-78
2022/06/08 09:05:49;;;;;;;0.73;0.60;;;;;;;;;;5042822;28;20515;-79
2022/06/08 09:08:17;;;;;;;0.70;0.70;;;;;;;;;;5066246;28;20435;-76
2022/06/08 09:10:50;;;;;;;0.70;0.70;;;;;;;;;;5060997;28;20444;-76
2022/06/08 09:13:21;;;;;;;0.80;0.70;;;;;;;;;;5058206;28;20640;-77
2022/06/08 09:15:49;;;;;;;0.70;0.60;;;;;;;;;;5067604;28;20450;-82
2022/06/08 09:18:18;;;;;;;0.70;0.60;;;;;;;;;;5077797;28;20488;-79
2022/06/08 09:20:45;;;;;;;0.70;0.60;;;;;;;;;;5070487;28;20475;-78
2022/06/08 09:23:24;;;;;;;0.70;0.60;;;;;;;;;;5056539;28;20455;-77
2022/06/08 09:26:01;;;;;;;0.70;0.60;;;;;;;;;;5069178;28;20777;-75
2022/06/08 09:28:30;;;;;;;0.73;0.70;;;;;;;;;;5058660;28;20428;-78
2022/06/08 09:30:57;;;;;;;0.70;0.60;;;;;;;;;;5041603;28;20447;-79
2022/06/08 09:33:26;;;;;;;0.70;0.60;;;;;;;;;;5058514;28;20424;-80
2022/06/08 09:35:55;;;;;;;0.70;0.60;;;;;;;;;;5039692;28;20476;-78
2022/06/08 09:38:23;;;;;;;1.30;1.13;;;;;;;;;;5057836;28;20443;-77
2022/06/08 09:40:58;;;;;;;0.70;0.63;;;;;;;;;;5073865;28;20432;-80
2022/06/08 09:43:30;;;;;;;0.70;0.70;;;;;;;;;;5041222;28;20860;-79
2022/06/08 09:46:01;;;;;;;0.80;0.80;;;;;;;;;;5056962;28;20864;-81
2022/06/08 09:51:30;;;;;;;0.70;0.60;;;;;;;;;;5056312;28;20443;-82
2022/06/08 09:54:01;;;;;;;0.70;0.60;;;;;;;;;;5055042;28;20480;-77
2022/06/08 09:56:33;;;;;;;0.70;0.60;;;;;;;;;;5037606;28;20447;-82
2022/06/08 09:59:18;;;;;;;0.70;0.60;;;;;;;;;;5055775;28;20412;-79
2022/06/08 10:01:49;;;;;;;0.73;0.67;;;;;;;;;;5055220;28;20952;-79
2022/06/08 10:04:23;;;;;;;0.70;0.60;;;;;;;;;;5064800;28;20443;-78
2022/06/08 10:07:12;;;;;;;0.70;0.70;;;;;;;;;;5055594;28;20471;-81
2022/06/08 10:09:48;;;;;;;0.70;0.60;;;;;;;;;;5055839;28;20432;-78
2022/06/08 10:12:24;;;;;;;0.70;0.60;;;;;;;;;;5055130;28;20798;-80
2022/06/08 10:15:01;;;;;;;0.70;0.60;;;;;;;;;;5054343;28;20456;-79
2022/06/08 10:17:39;;;;;;;0.80;0.70;;;;;;;;;;5053449;28;20418;-80
2022/06/08 10:20:12;;;;;;;0.70;0.60;;;;;;;;;;5052728;28;20409;-78
2022/06/08 10:22:42;;;;;;;0.70;0.60;;;;;;;;;;5038106;28;20495;-80
2022/06/08 10:25:14;;;;;;;0.70;0.67;;;;;;;;;;5052561;28;20428;-79
2022/06/08 10:27:45;;;;;;;0.70;0.60;;;;;;;;;;5054628;28;20454;-77
2022/06/08 10:30:18;;;;;;;0.70;0.60;;;;;;;;;;5053493;28;20540;-76
2022/06/08 10:32:49;;;;;;;0.70;0.67;;;;;;;;;;5054204;28;20504;-79
2022/06/08 10:35:21;;;;;;;0.70;0.70;;;;;;;;;;5054545;28;20467;-78
2022/06/08 10:37:48;;;;;;;0.80;0.70;;;;;;;;;;5069836;28;20427;-78
2022/06/08 10:40:17;;;;;;;0.70;0.60;;;;;;;;;;5054311;28;20428;-79
2022/06/08 10:42:47;;;;;;;0.70;0.60;;;;;;;;;;5033952;28;20461;-78
2022/06/08 10:45:35;;;;;;;0.70;0.60;;;;;;;;;;5044100;28;20776;-82
2022/06/08 10:48:18;;;;;;;0.70;0.60;;;;;;;;;;5054271;28;20520;-79
2022/06/08 10:50:47;;;;;;;0.80;0.70;;;;;;;;;;5035785;28;20414;-82
2022/06/08 10:56:46;;;;;;;0.80;0.70;;;;;;;;;;5036302;28;20462;-79
2022/06/08 10:59:14;;;;;;;0.70;0.60;;;;;;;;;;5058111;28;20447;-81
2022/06/08 11:01:52;;;;;;;0.70;0.60;;;;;;;;;;5055825;28;20450;-79
2022/06/08 11:04:39;;;;;;;0.70;0.60;;;;;;;;;;5074436;28;20429;-81
2022/06/08 11:07:09;;;;;;;0.70;0.70;;;;;;;;;;5059512;28;20967;-83
2022/06/08 11:09:52;;;;;;;0.70;0.60;;;;;;;;;;5052311;28;20472;-82
2022/06/08 11:12:27;;;;;;;0.70;0.70;;;;;;;;;;5041486;28;20875;-75
2022/06/08 11:14:57;;;;;;;0.70;0.63;;;;;;;;;;5068612;28;20471;-78
2022/06/08 11:17:27;;;;;;;0.70;0.70;;;;;;;;;;5034863;28;20996;-78
2022/06/08 11:20:00;;;;;;;0.70;0.60;;;;;;;;;;5053457;28;20427;-79
2022/06/08 11:22:31;;;;;;;0.80;0.70;;;;;;;;;;5052852;28;20463;-78
2022/06/08 11:25:01;;;;;;;0.70;0.67;;;;;;;;;;5052827;28;20419;-78
2022/06/08 11:27:29;;;;;;;0.80;0.77;;;;;;;;;;5070578;28;20508;-76
2022/06/08 11:29:57;;;;;;;0.70;0.70;;;;;;;;;;5072640;28;20555;-76
2022/06/08 11:32:39;;;;;;;0.70;0.70;;;;;;;;;;5067914;28;20453;-77
2022/06/08 11:35:15;;;;;;;0.70;0.60;;;;;;;;;;5048819;28;20477;-78
2022/06/08 11:37:48;;;;;;;0.70;0.70;;;;;;;;;;5055260;28;20466;-78
2022/06/08 11:40:21;;;;;;;0.70;0.60;;;;;;;;;;5072786;28;20416;-77
2022/06/08 11:42:51;;;;;;;0.70;0.70;;;;;;;;;;5055997;28;20483;-76
2022/06/08 11:45:19;;;;;;;0.80;0.73;;;;;;;;;;5059014;28;20836;-76
2022/06/08 11:47:49;;;;;;;0.70;0.60;;;;;;;;;;5061792;28;20439;-76
2022/06/08 11:50:20;;;;;;;0.70;0.60;;;;;;;;;;5075853;28;20422;-77
2022/06/08 11:52:57;;;;;;;0.70;0.60;;;;;;;;;;5058579;28;20459;-76
2022/06/08 11:55:28;;;;;;;3.17;3.03;;;;;;;;;;5059913;28;20463;-77
2022/06/08 11:57:58;;;;;;;0.70;0.60;;;;;;;;;;5056710;28;20409;-78
2022/06/08 12:00:30;;;;;;;0.70;0.70;;;;;;;;;;5054899;28;20485;-77
2022/06/08 12:02:58;;;;;;;0.70;0.70;;;;;;;;;;5056510;28;20672;-76
2022/06/08 12:05:27;;;;;;;0.70;0.60;;;;;;;;;;5057227;28;20836;-77
2022/06/08 12:07:58;;;;;;;0.73;0.70;;;;;;;;;;5055579;28;20530;-77
2022/06/08 12:10:27;;;;;;;0.70;0.70;;;;;;;;;;5056489;28;20466;-78
2022/06/08 12:12:55;;;;;;;0.70;0.70;;;;;;;;;;5059210;28;20446;-77
2022/06/08 12:15:43;;;;;;;0.70;0.67;;;;;;;;;;5054760;28;21009;-77
2022/06/08 12:18:17;;;;;;;0.70;0.70;;;;;;;;;;5047818;28;20449;-77
2022/06/08 12:20:45;;;;;;;0.70;0.70;;;;;;;;;;5036642;28;20444;-77
2022/06/08 12:23:12;;;;;;;0.70;0.70;;;;;;;;;;5050841;28;20438;-77
2022/06/08 12:25:39;;;;;;;0.70;0.67;;;;;;;;;;5038550;28;20440;-77
2022/06/08 12:28:15;;;;;;;0.70;0.70;;;;;;;;;;5068671;28;20430;-77
2022/06/08 12:30:53;;;;;;;0.70;0.60;;;;;;;;;;5047456;28;20460;-76
2022/06/08 12:33:25;;;;;;;0.70;0.70;;;;;;;;;;5035986;28;20781;-76
2022/06/08 12:35:56;;;;;;;0.70;0.70;;;;;;;;;;5036335;28;20996;-76
2022/06/08 12:38:25;;;;;;;0.70;0.60;;;;;;;;;;5055599;28;20412;-76
2022/06/08 12:41:01;;;;;;;0.70;0.67;;;;;;;;;;5071665;28;20445;-76
2022/06/08 12:43:39;;;;;;;0.70;0.60;;;;;;;;;;5055562;28;20453;-76
2022/06/08 12:46:15;;;;;;;0.80;0.80;;;;;;;;;;5068722;28;20492;-76
2022/06/08 12:48:46;;;;;;;0.70;0.63;;;;;;;;;;5064023;28;20441;-76
2022/06/08 12:51:32;;;;;;;0.73;0.70;;;;;;;;;;5054113;28;20517;-76
2022/06/08 12:54:00;;;;;;;0.70;0.70;;;;;;;;;;5053887;28;20453;-76
2022/06/08 12:56:27;;;;;;;0.80;0.73;;;;;;;;;;5055434;28;20459;-76
2022/06/08 12:58:55;;;;;;;0.70;0.60;;;;;;;;;;5053509;28;20452;-76
2022/06/08 13:01:24;;;;;;;0.80;0.80;;;;;;;;;;5055045;28;20428;-76
2022/06/08 13:03:52;;;;;;;0.70;0.63;;;;;;;;;;5070440;28;20423;-76
2022/06/08 13:06:19;;;;;;;0.70;0.70;;;;;;;;;;5054368;28;20516;-76
2022/06/08 13:08:49;;;;;;;0.70;0.60;;;;;;;;;;5054809;28;20446;-76
2022/06/08 13:11:19;;;;;;;0.80;0.70;;;;;;;;;;5053713;28;20496;-76
2022/06/08 13:13:47;;;;;;;0.70;0.60;;;;;;;;;;5054986;28;20534;-76
2022/06/08 13:16:36;;;;;;;0.70;0.70;;;;;;;;;;5055234;28;20448;-76
2022/06/08 13:19:09;;;;;;;0.70;0.60;;;;;;;;;;5049221;28;20458;-76
2022/06/08 13:21:35;;;;;;;0.70;0.60;;;;;;;;;;5049704;28;20522;-75
2022/06/08 13:24:04;;;;;;;0.70;0.60;;;;;;;;;;5040365;28;20431;-75
2022/06/08 13:26:32;;;;;;;0.80;0.80;;;;;;;;;;5037058;28;20436;-75
2022/06/08 13:28:59;;;;;;;0.70;0.60;;;;;;;;;;5064828;28;20554;-76
2022/06/08 13:31:26;;;;;;;0.70;0.70;;;;;;;;;;5055251;28;20476;-75
2022/06/08 13:33:59;;;;;;;0.70;0.70;;;;;;;;;;5054834;28;20928;-75
2022/06/08 13:36:28;;;;;;;0.70;0.60;;;;;;;;;;5052776;28;20487;-74
2022/06/08 13:38:58;;;;;;;0.70;0.70;;;;;;;;;;5054514;28;20940;-75
2022/06/08 13:41:26;;;;;;;0.70;0.70;;;;;;;;;;5054481;28;20439;-75
2022/06/08 13:43:54;;;;;;;0.70;0.60;;;;;;;;;;5052212;28;20811;-75
2022/06/08 13:46:23;;;;;;;0.70;0.63;;;;;;;;;;5069028;28;20418;-74
2022/06/08 13:48:51;;;;;;;0.70;0.70;;;;;;;;;;5065673;28;20929;-75
2022/06/08 13:51:17;;;;;;;0.70;0.60;;;;;;;;;;5073921;28;20555;-76
2022/06/08 13:53:44;;;;;;;0.70;0.70;;;;;;;;;;5072494;28;20522;-76
2022/06/08 13:56:11;;;;;;;0.70;0.60;;;;;;;;;;5054865;28;20457;-76
2022/06/08 13:58:40;;;;;;;0.70;0.60;;;;;;;;;;5057433;28;20449;-76
2022/06/08 14:01:13;;;;;;;0.70;0.60;;;;;;;;;;5072229;28;20947;-77
2022/06/08 14:03:40;;;;;;;0.70;0.70;;;;;;;;;;5075425;28;20444;-78
2022/06/08 14:14:49;;;;;;;0.70;0.60;;;;;;;;;;5056795;28;20820;-76
2022/06/08 14:17:17;;;;;;;0.70;0.70;;;;;;;;;;5056438;28;20940;-77
2022/06/08 14:19:46;;;;;;;0.70;0.60;;;;;;;;;;5056333;28;20478;-77
2022/06/08 14:22:15;;;;;;;0.70;0.70;;;;;;;;;;5056678;28;20452;-77
2022/06/08 14:24:45;;;;;;;0.70;0.60;;;;;;;;;;5056155;28;20936;-77
2022/06/08 14:27:13;;;;;;;0.70;0.60;;;;;;;;;;5072821;28;20455;-77
2022/06/08 14:29:40;;;;;;;0.70;0.70;;;;;;;;;;5056719;28;20461;-76
2022/06/08 14:32:15;;;;;;;0.70;0.63;;;;;;;;;;5073485;28;20445;-76
2022/06/08 14:34:42;;;;;;;0.70;0.60;;;;;;;;;;5058126;28;20419;-77
2022/06/08 14:37:10;;;;;;;0.70;0.70;;;;;;;;;;5060000;28;20505;-77
2022/06/08 14:39:39;;;;;;;0.70;0.60;;;;;;;;;;5060928;28;20589;-76
2022/06/08 14:42:06;;;;;;;0.70;0.60;;;;;;;;;;5061423;28;20441;-77
2022/06/08 14:44:33;;;;;;;0.70;0.60;;;;;;;;;;5058107;28;20471;-78
2022/06/08 14:47:02;;;;;;;0.70;0.70;;;;;;;;;;5057080;28;20440;-77
2022/06/08 14:49:31;;;;;;;0.70;0.67;;;;;;;;;;5060116;28;20790;-77
2022/06/08 14:51:59;;;;;;;0.70;0.67;;;;;;;;;;5072497;28;20474;-77
2022/06/08 14:54:27;;;;;;;0.70;0.60;;;;;;;;;;5059924;28;20429;-77
2022/06/08 14:57:00;;;;;;;0.80;0.77;;;;;;;;;;5057891;28;20466;-76
2022/06/08 14:59:29;;;;;;;0.70;0.60;;;;;;;;;;5056638;28;20435;-76
2022/06/08 15:01:56;;;;;;;0.70;0.60;;;;;;;;;;5055881;28;20550;-76
2022/06/08 15:04:26;;;;;;;0.70;0.70;;;;;;;;;;5063020;28;20942;-77
2022/06/08 15:06:57;;;;;;;0.80;0.80;;;;;;;;;;5050538;28;20474;-76
2022/06/08 15:09:25;;;;;;;0.70;0.70;;;;;;;;;;5055246;28;20450;-76
2022/06/08 15:11:59;;;;;;;0.70;0.60;;;;;;;;;;5053338;28;20457;-76
2022/06/08 15:14:28;;;;;;;0.70;0.60;;;;;;;;;;5052646;28;20423;-78
2022/06/08 15:16:55;;;;;;;0.70;0.70;;;;;;;;;;5054029;28;20472;-77
2022/06/08 15:19:23;;;;;;;0.67;0.60;;;;;;;;;;5054454;28;20502;-76
2022/06/08 15:21:50;;;;;;;0.70;0.60;;;;;;;;;;5064514;28;20500;-76
2022/06/08 15:24:20;;;;;;;0.70;0.60;;;;;;;;;;5068179;28;20894;-76
2022/06/08 15:26:47;;;;;;;0.70;0.60;;;;;;;;;;5071152;28;20425;-77